Time;durP1;ratioP1;P1;durP2;ratioP2;P2;SDS_P1;SDS_P2;PMS_P1;PMS_P2;Temp;Humidity;BMP_temperature;BMP_pressure;BME280_temperature;BME280_humidity;BME280_pressure;Samples;Min_cycle;Max_cycle;Signal;HPM_P1;HPM_P2
2022/03/24 00:02:10;;;;;;;65.75;32.45;;;;;;;9.96;59.61;103117.50;5019248;28;20492;-54
2022/03/24 00:04:35;;;;;;;70.43;32.58;;;;;;;9.91;59.96;103122.50;5013537;28;20045;-55
2022/03/24 00:07:00;;;;;;;68.38;32.15;;;;;;;9.89;59.77;103116.31;5010649;28;20378;-54
2022/03/24 00:09:26;;;;;;;66.97;32.90;;;;;;;9.91;60.05;103111.19;5019248;28;20060;-55
2022/03/24 00:11:51;;;;;;;66.22;32.63;;;;;;;9.89;60.17;103115.41;5023098;28;20546;-55
2022/03/24 00:14:17;;;;;;;70.25;32.47;;;;;;;9.87;59.83;103111.84;5024088;28;20072;-55
2022/03/24 00:16:43;;;;;;;67.28;32.40;;;;;;;9.86;60.38;103107.44;5005103;28;20551;-52
2022/03/24 00:19:09;;;;;;;66.78;32.45;;;;;;;9.86;60.45;103110.94;5029754;28;20088;-54
2022/03/24 00:21:34;;;;;;;64.97;32.63;;;;;;;9.82;60.48;103108.97;5024965;28;20145;-51
2022/03/24 00:23:59;;;;;;;70.13;33.28;;;;;;;9.79;60.58;103106.22;5024229;28;20063;-51
2022/03/24 00:26:25;;;;;;;70.45;33.22;;;;;;;9.72;61.01;103106.72;5020251;28;20571;-54
2022/03/24 00:28:50;;;;;;;68.97;33.60;;;;;;;9.68;60.96;103110.00;5020430;28;20045;-51
2022/03/24 00:31:16;;;;;;;66.07;32.22;;;;;;;9.68;60.97;103113.50;5020036;28;20364;-54
2022/03/24 00:33:42;;;;;;;71.32;33.35;;;;;;;9.66;61.05;103106.41;5015150;28;20121;-55
2022/03/24 00:36:11;;;;;;;72.93;34.63;;;;;;;9.63;61.19;103114.06;5008854;28;20061;-54
2022/03/24 00:38:39;;;;;;;73.10;34.15;;;;;;;9.58;61.40;103110.31;5010718;28;20681;-51
2022/03/24 00:41:04;;;;;;;70.03;34.20;;;;;;;9.55;61.33;103116.25;5015844;28;20419;-50
2022/03/24 00:43:30;;;;;;;75.88;33.30;;;;;;;9.51;61.34;103109.09;5024402;28;20071;-55
2022/03/24 00:46:00;;;;;;;65.97;32.80;;;;;;;9.47;61.26;103104.53;5017341;28;20034;-53
2022/03/24 00:48:26;;;;;;;72.72;33.17;;;;;;;9.49;61.42;103107.22;5017827;28;20504;-52
2022/03/24 00:50:52;;;;;;;67.25;32.90;;;;;;;9.47;61.48;103108.84;5014823;28;20121;-50
2022/03/24 00:53:18;;;;;;;69.72;33.40;;;;;;;9.41;61.63;103109.41;5025152;28;20055;-51
2022/03/24 00:55:47;;;;;;;73.78;34.70;;;;;;;9.36;61.24;103105.66;5023332;28;20037;-54
2022/03/24 00:58:13;;;;;;;72.80;34.75;;;;;;;9.34;61.85;103104.69;5011018;28;20561;-51
2022/03/24 01:00:40;;;;;;;73.38;34.03;;;;;;;9.33;61.71;103105.53;5015665;28;21106;-53
2022/03/24 01:03:06;;;;;;;80.20;35.47;;;;;;;9.40;61.56;103102.41;5015945;28;20048;-52
2022/03/24 01:05:34;;;;;;;76.68;35.13;;;;;;;9.42;61.88;103099.91;5022553;28;20477;-53
2022/03/24 01:08:00;;;;;;;77.57;34.88;;;;;;;9.39;61.88;103097.16;5026171;28;20043;-56
2022/03/24 01:10:25;;;;;;;78.18;36.40;;;;;;;9.34;62.39;103092.56;5018672;28;20508;-51
2022/03/24 01:12:51;;;;;;;76.47;35.53;;;;;;;9.31;62.41;103097.63;5017366;28;20055;-53
2022/03/24 01:15:19;;;;;;;79.50;35.22;;;;;;;9.30;62.46;103102.75;5023744;28;20041;-53
2022/03/24 01:17:46;;;;;;;74.15;35.63;;;;;;;9.26;62.25;103088.69;5016393;28;20188;-51
2022/03/24 01:20:12;;;;;;;74.72;35.10;;;;;;;9.22;62.46;103091.00;5021370;28;20040;-52
2022/03/24 01:22:38;;;;;;;73.93;34.00;;;;;;;9.20;62.56;103090.06;5013235;28;20045;-50
2022/03/24 01:25:06;;;;;;;73.97;33.80;;;;;;;9.17;62.68;103082.97;5028270;28;20049;-55
2022/03/24 01:27:32;;;;;;;76.68;36.13;;;;;;;9.14;62.90;103085.41;5023647;28;20070;-54
2022/03/24 01:29:59;;;;;;;75.43;35.28;;;;;;;9.13;62.72;103083.63;5012370;28;20689;-55
2022/03/24 01:32:26;;;;;;;82.60;36.85;;;;;;;9.11;63.27;103085.22;5020181;28;20040;-51
2022/03/24 01:34:52;;;;;;;71.63;34.95;;;;;;;9.12;62.90;103075.72;5020429;28;20055;-55
2022/03/24 01:37:18;;;;;;;73.85;34.22;;;;;;;9.13;63.16;103083.63;5017086;28;20437;-54
2022/03/24 01:39:43;;;;;;;71.55;34.38;;;;;;;9.09;63.38;103080.78;5017663;28;20040;-51
2022/03/24 01:42:08;;;;;;;77.85;36.58;;;;;;;9.11;63.41;103084.34;5019765;28;20056;-56
2022/03/24 01:44:34;;;;;;;80.90;35.83;;;;;;;9.11;63.35;103072.22;5010691;28;20573;-58
2022/03/24 01:47:08;;;;;;;74.47;34.63;;;;;;;9.07;62.95;103069.38;5020496;28;21187;-51
2022/03/24 01:49:38;;;;;;;83.20;36.17;;;;;;;9.01;63.51;103067.34;5025991;28;20037;-51
2022/03/24 01:52:14;;;;;;;76.30;35.28;;;;;;;8.99;63.88;103073.25;5014210;28;20617;-53
2022/03/24 01:54:48;;;;;;;79.38;35.25;;;;;;;9.00;64.43;103070.75;5014682;28;20157;-56
2022/03/24 01:57:17;;;;;;;78.88;35.50;;;;;;;9.04;64.15;103066.59;5026161;28;20531;-54
2022/03/24 01:59:43;;;;;;;72.57;34.45;;;;;;;9.03;64.04;103067.41;5015258;28;20041;-51
2022/03/24 02:02:10;;;;;;;77.90;35.25;;;;;;;9.00;64.16;103065.53;5015895;28;20167;-50
2022/03/24 02:04:36;;;;;;;81.00;37.15;;;;;;;8.96;64.46;103074.00;5013053;28;20067;-54
2022/03/24 02:07:02;;;;;;;75.30;35.53;;;;;;;8.96;63.85;103061.00;5016680;28;20040;-53
2022/03/24 02:09:28;;;;;;;77.32;35.03;;;;;;;8.92;63.65;103067.72;5022169;28;20574;-54
2022/03/24 02:11:54;;;;;;;72.80;35.25;;;;;;;8.86;63.97;103064.78;5019051;28;20460;-51
2022/03/24 02:14:20;;;;;;;77.45;35.30;;;;;;;8.79;64.48;103067.84;5023225;28;20069;-51
2022/03/24 02:16:48;;;;;;;80.60;35.80;;;;;;;8.75;64.87;103065.91;5006152;28;22340;-50
2022/03/24 02:19:21;;;;;;;82.68;36.75;;;;;;;8.72;64.26;103063.13;5016818;28;20049;-52
2022/03/24 02:21:47;;;;;;;81.70;35.33;;;;;;;8.73;64.11;103064.91;5018245;28;20561;-53
2022/03/24 02:24:15;;;;;;;76.18;35.38;;;;;;;8.69;64.88;103062.06;5020052;28;20595;-51
2022/03/24 02:26:42;;;;;;;81.47;36.05;;;;;;;8.66;64.98;103067.09;5016619;28;20821;-55
2022/03/24 02:29:10;;;;;;;82.55;37.83;;;;;;;8.71;65.40;103060.44;5023898;28;20056;-55
2022/03/24 02:31:42;;;;;;;82.35;38.38;;;;;;;8.70;65.45;103058.66;5012277;28;20124;-53
2022/03/24 02:36:55;;;;;;;81.55;36.60;;;;;;;8.60;64.90;103059.81;5019268;28;20055;-51
2022/03/24 02:39:21;;;;;;;74.75;36.17;;;;;;;8.55;64.57;103067.38;5029331;28;20051;-53
2022/03/24 02:41:52;;;;;;;80.38;37.20;;;;;;;8.46;65.01;103055.56;5005665;28;20423;-50
2022/03/24 02:44:19;;;;;;;84.43;37.30;;;;;;;8.42;65.13;103066.59;5015712;28;20059;-52
2022/03/24 02:46:48;;;;;;;81.00;36.90;;;;;;;8.37;65.05;103065.44;5014278;28;21392;-54
2022/03/24 02:49:18;;;;;;;79.45;36.72;;;;;;;8.34;65.49;103076.56;5016968;28;20499;-52
2022/03/24 02:51:44;;;;;;;81.82;36.45;;;;;;;8.30;65.67;103071.06;5020543;28;20059;-55
2022/03/24 02:54:10;;;;;;;74.38;35.95;;;;;;;8.26;65.55;103067.41;5019651;28;20424;-55
2022/03/24 02:56:37;;;;;;;88.00;37.63;;;;;;;8.23;65.73;103067.25;5018063;28;20145;-55
2022/03/24 02:59:04;;;;;;;90.32;39.88;;;;;;;8.24;65.75;103057.72;5015229;28;20234;-50
2022/03/24 03:01:30;;;;;;;87.35;38.78;;;;;;;8.24;66.11;103069.00;5017628;28;20575;-55
2022/03/24 03:03:55;;;;;;;87.53;39.55;;;;;;;8.25;66.16;103062.09;5023007;28;20068;-52
2022/03/24 03:06:22;;;;;;;82.38;38.95;;;;;;;8.24;65.97;103063.81;5018178;28;21451;-53
2022/03/24 03:08:49;;;;;;;90.10;39.65;;;;;;;8.19;66.05;103060.03;5025089;28;20102;-55
2022/03/24 03:11:16;;;;;;;89.32;38.60;;;;;;;8.15;66.39;103066.78;5017648;28;20080;-55
2022/03/24 03:13:43;;;;;;;80.20;38.05;;;;;;;8.11;65.94;103063.94;5015748;28;20558;-54
2022/03/24 03:16:08;;;;;;;82.82;36.42;;;;;;;8.08;66.35;103062.03;5020467;28;20603;-55
2022/03/24 03:18:34;;;;;;;87.70;37.60;;;;;;;8.08;65.88;103061.13;5009132;28;20044;-54
2022/03/24 03:20:59;;;;;;;84.90;38.33;;;;;;;8.03;66.45;103058.28;5013494;28;20247;-52
2022/03/24 03:23:25;;;;;;;87.65;39.15;;;;;;;8.00;66.50;103058.09;5019632;28;20220;-50
2022/03/24 03:25:51;;;;;;;85.55;38.60;;;;;;;8.00;66.41;103064.97;5017298;28;20475;-53
2022/03/24 03:28:17;;;;;;;85.00;37.50;;;;;;;7.98;66.29;103058.81;5015237;28;20040;-54
2022/03/24 03:30:43;;;;;;;94.57;40.25;;;;;;;7.93;66.47;103062.84;5014326;28;20100;-55
2022/03/24 03:33:08;;;;;;;87.38;38.78;;;;;;;7.90;66.54;103063.56;5023889;28;20588;-52
2022/03/24 03:35:34;;;;;;;89.82;39.70;;;;;;;7.87;66.48;103060.75;5023377;28;20040;-54
2022/03/24 03:37:59;;;;;;;84.00;38.25;;;;;;;7.88;66.32;103064.25;5028381;28;20060;-54
2022/03/24 03:40:25;;;;;;;84.25;38.60;;;;;;;7.87;66.35;103054.69;5007413;28;20071;-54
2022/03/24 03:42:51;;;;;;;79.68;38.13;;;;;;;7.89;66.56;103058.25;5013592;28;20056;-52
2022/03/24 03:45:17;;;;;;;93.97;40.97;;;;;;;7.92;67.98;103055.88;5008536;28;20502;-52
2022/03/24 03:47:42;;;;;;;87.25;40.30;;;;;;;8.01;67.48;103052.09;5025914;28;20057;-52
2022/03/24 03:50:08;;;;;;;90.18;38.00;;;;;;;7.98;67.20;103054.53;5009812;28;20049;-57
2022/03/24 03:52:34;;;;;;;87.38;38.83;;;;;;;7.95;67.02;103051.72;5009785;28;20461;-50
2022/03/24 03:54:59;;;;;;;91.70;40.90;;;;;;;7.91;67.48;103054.97;5023494;28;20045;-51
2022/03/24 03:57:25;;;;;;;90.45;39.17;;;;;;;7.97;67.13;103046.63;5021468;28;20506;-51
2022/03/24 03:59:50;;;;;;;87.95;38.75;;;;;;;7.99;66.69;103055.44;5016708;28;20492;-55
2022/03/24 04:02:15;;;;;;;82.65;37.42;;;;;;;7.97;66.62;103051.81;5019985;28;20221;-54
2022/03/24 04:04:41;;;;;;;84.07;38.50;;;;;;;7.90;66.82;103053.16;5012098;28;20330;-53
2022/03/24 04:07:06;;;;;;;81.40;36.97;;;;;;;7.87;66.61;103057.31;5023363;28;20055;-52
2022/03/24 04:09:31;;;;;;;82.25;37.75;;;;;;;7.83;67.08;103056.19;5010483;28;20041;-50
2022/03/24 04:11:57;;;;;;;84.30;37.90;;;;;;;7.82;66.74;103054.41;5018244;28;20051;-53
2022/03/24 04:14:23;;;;;;;83.65;38.63;;;;;;;7.75;67.14;103055.75;5017549;28;20037;-54
2022/03/24 04:16:49;;;;;;;82.20;37.50;;;;;;;7.73;66.77;103053.88;5016838;28;20037;-53
2022/03/24 04:19:15;;;;;;;80.85;36.22;;;;;;;7.71;67.00;103053.78;5010812;28;20050;-51
2022/03/24 04:21:40;;;;;;;83.97;38.80;;;;;;;7.70;66.85;103056.28;5016114;28;20067;-55
2022/03/24 04:24:07;;;;;;;86.45;39.05;;;;;;;7.67;67.16;103054.41;5017398;28;20072;-53
2022/03/24 04:26:33;;;;;;;83.72;37.72;;;;;;;7.70;67.05;103053.69;4998486;28;21133;-52
2022/03/24 04:28:58;;;;;;;79.00;36.30;;;;;;;7.71;67.45;103052.88;5023026;28;20061;-54
2022/03/24 04:31:24;;;;;;;85.28;37.38;;;;;;;7.73;67.36;103061.66;5019284;28;20041;-55
2022/03/24 04:33:49;;;;;;;88.38;38.22;;;;;;;7.67;67.59;103059.59;5014870;28;20229;-55
2022/03/24 04:36:16;;;;;;;88.15;38.70;;;;;;;7.63;67.61;103061.91;5017891;28;20041;-55
2022/03/24 04:38:41;;;;;;;77.68;34.75;;;;;;;7.63;67.21;103055.00;5012906;28;20048;-52
2022/03/24 04:41:07;;;;;;;81.95;36.58;;;;;;;7.64;67.83;103055.91;5020464;28;20131;-55
2022/03/24 04:43:34;;;;;;;83.60;37.20;;;;;;;7.63;67.32;103065.41;5010365;28;20051;-55
2022/03/24 04:45:59;;;;;;;78.68;35.60;;;;;;;7.60;67.54;103061.72;5018616;28;20709;-52
2022/03/24 04:48:24;;;;;;;82.63;36.20;;;;;;;7.56;67.65;103058.03;5025421;28;20047;-51
2022/03/24 04:50:50;;;;;;;83.75;36.88;;;;;;;7.52;67.75;103063.84;5009137;28;20069;-54
2022/03/24 04:53:15;;;;;;;84.22;37.65;;;;;;;7.47;67.68;103057.50;5018927;28;20776;-53
2022/03/24 04:55:44;;;;;;;78.53;35.28;;;;;;;7.46;67.74;103058.28;5021977;28;20083;-51
2022/03/24 04:58:11;;;;;;;83.78;38.38;;;;;;;7.42;67.92;103061.53;5013736;28;20135;-54
2022/03/24 05:00:36;;;;;;;83.88;36.47;;;;;;;7.41;67.76;103064.00;5007135;28;20415;-54
2022/03/24 05:03:02;;;;;;;86.30;36.05;;;;;;;7.37;67.87;103057.75;5022324;28;20110;-54
2022/03/24 05:05:28;;;;;;;81.72;36.47;;;;;;;7.34;67.99;103065.34;5019082;28;20037;-54
2022/03/24 05:07:54;;;;;;;77.05;34.58;;;;;;;7.34;67.91;103061.03;5021553;28;20091;-56
2022/03/24 05:10:19;;;;;;;77.00;35.78;;;;;;;7.37;67.72;103059.44;5013667;28;20567;-54
2022/03/24 05:12:45;;;;;;;79.65;35.58;;;;;;;7.40;67.79;103064.81;5017829;28;20567;-53
2022/03/24 05:15:12;;;;;;;82.20;36.67;;;;;;;7.41;67.93;103061.41;5019455;28;20275;-52
2022/03/24 05:17:38;;;;;;;85.30;37.03;;;;;;;7.38;67.67;103067.31;5022708;28;20033;-54
2022/03/24 05:20:04;;;;;;;78.63;36.00;;;;;;;7.36;67.72;103068.94;5020377;28;20049;-55
2022/03/24 05:22:30;;;;;;;76.75;34.97;;;;;;;7.34;68.02;103066.25;5022401;28;20128;-53
2022/03/24 05:24:55;;;;;;;81.78;36.47;;;;;;;7.39;67.72;103071.69;5020544;28;20036;-54
2022/03/24 05:27:21;;;;;;;77.70;35.85;;;;;;;7.35;67.88;103067.13;5025078;28;20364;-55
2022/03/24 05:29:46;;;;;;;73.07;34.90;;;;;;;7.34;67.92;103066.25;5018622;28;20037;-55
2022/03/24 05:32:12;;;;;;;78.28;35.25;;;;;;;7.36;67.92;103068.03;5012875;28;20119;-53
2022/03/24 05:34:37;;;;;;;84.25;36.55;;;;;;;7.36;67.46;103070.63;5012734;28;20404;-51
2022/03/24 05:37:03;;;;;;;83.80;36.55;;;;;;;7.41;67.84;103080.47;5020898;28;20056;-53
2022/03/24 05:39:29;;;;;;;84.10;36.38;;;;;;;7.44;67.97;103083.25;5021512;28;20234;-53
2022/03/24 05:41:54;;;;;;;81.68;35.35;;;;;;;7.46;67.85;103078.16;5022266;28;20041;-54
2022/03/24 05:44:21;;;;;;;84.63;36.00;;;;;;;7.42;68.33;103083.97;5015868;28;20114;-51
2022/03/24 05:46:47;;;;;;;84.45;36.47;;;;;;;7.48;68.26;103090.44;5016044;28;20447;-52
2022/03/24 05:49:15;;;;;;;85.28;37.15;;;;;;;7.55;68.29;103082.22;5018246;28;20048;-51
2022/03/24 05:51:42;;;;;;;87.75;36.88;;;;;;;7.58;68.46;103092.78;5018687;28;20045;-50
2022/03/24 05:54:09;;;;;;;83.20;37.22;;;;;;;7.62;68.54;103091.28;5021671;28;20417;-51
2022/03/24 05:56:35;;;;;;;78.60;36.17;;;;;;;7.70;68.21;103096.13;5011689;28;20130;-54
2022/03/24 05:59:00;;;;;;;81.70;36.70;;;;;;;7.77;68.41;103096.50;5017367;28;20095;-55
2022/03/24 06:01:26;;;;;;;87.75;37.03;;;;;;;7.83;67.95;103091.66;5018019;28;20472;-52
2022/03/24 06:03:52;;;;;;;83.35;36.38;;;;;;;7.87;68.16;103094.53;5024769;28;20177;-56
2022/03/24 06:06:18;;;;;;;80.88;37.33;;;;;;;7.97;68.28;103095.97;5010566;28;20044;-51
2022/03/24 06:08:44;;;;;;;82.72;36.80;;;;;;;8.06;68.01;103092.22;5011316;28;20071;-51
2022/03/24 06:11:15;;;;;;;78.00;36.60;;;;;;;8.15;67.96;103097.97;5015893;28;20139;-53
2022/03/24 06:13:41;;;;;;;81.85;37.78;;;;;;;8.51;68.26;103090.53;5012594;28;20178;-52
2022/03/24 06:16:08;;;;;;;74.85;35.47;;;;;;;8.96;67.21;103081.81;5014284;28;20048;-55
2022/03/24 06:18:35;;;;;;;76.95;36.58;;;;;;;9.44;64.86;103085.25;5006884;28;20533;-53
2022/03/24 06:21:04;;;;;;;73.45;35.53;;;;;;;9.99;63.01;103081.22;5018574;28;20055;-54
2022/03/24 06:23:30;;;;;;;76.82;36.35;;;;;;;10.45;60.91;103087.91;5021186;28;20127;-54
2022/03/24 06:25:56;;;;;;;71.88;35.58;;;;;;;10.95;60.34;103076.41;5020133;28;20060;-52
2022/03/24 06:28:22;;;;;;;75.38;37.10;;;;;;;11.40;58.47;103077.63;5020072;28;20057;-51
2022/03/24 06:30:48;;;;;;;74.68;35.40;;;;;;;11.88;57.44;103078.03;5015506;28;20044;-51
2022/03/24 06:33:16;;;;;;;70.53;35.92;;;;;;;12.22;55.35;103076.00;5007621;28;20405;-53
2022/03/24 06:35:43;;;;;;;69.28;36.35;;;;;;;12.53;55.04;103076.44;5018286;28;20074;-51
2022/03/24 06:38:08;;;;;;;74.43;37.67;;;;;;;12.80;54.46;103071.41;5009616;28;20072;-52
2022/03/24 06:40:33;;;;;;;67.70;35.67;;;;;;;13.19;53.87;103074.69;4997998;28;20398;-54
2022/03/24 06:42:59;;;;;;;66.93;35.53;;;;;;;13.47;54.20;103078.34;5022017;28;20196;-52
2022/03/24 06:45:25;;;;;;;65.95;36.90;;;;;;;13.75;52.13;103068.00;5000337;28;20048;-53
2022/03/24 06:47:50;;;;;;;70.38;37.92;;;;;;;13.64;51.28;103075.47;5024117;28;20145;-54
2022/03/24 06:50:15;;;;;;;71.25;37.42;;;;;;;13.83;50.72;103077.03;5020907;28;20534;-54
2022/03/24 06:52:42;;;;;;;67.07;37.25;;;;;;;14.14;49.76;103084.22;5001768;28;20517;-54
2022/03/24 06:55:08;;;;;;;62.22;35.53;;;;;;;14.53;50.42;103082.03;5022729;28;20633;-55
2022/03/24 06:57:35;;;;;;;66.18;36.13;;;;;;;14.76;51.74;103070.50;5016785;28;20160;-50
2022/03/24 07:00:00;;;;;;;68.75;37.55;;;;;;;15.07;50.96;103076.69;5019372;28;20067;-53
2022/03/24 07:02:26;;;;;;;69.35;36.97;;;;;;;15.34;49.28;103073.16;5007503;28;20806;-58
2022/03/24 07:04:51;;;;;;;66.93;37.53;;;;;;;15.52;49.80;103075.44;5016673;28;20315;-53
2022/03/24 07:07:17;;;;;;;67.50;37.42;;;;;;;15.95;48.69;103069.63;5025283;28;20511;-54
2022/03/24 07:09:43;;;;;;;66.68;35.95;;;;;;;16.07;46.50;103077.81;5015660;28;20416;-54
2022/03/24 07:12:08;;;;;;;65.10;37.38;;;;;;;16.25;45.81;103072.13;5010451;28;20044;-53
2022/03/24 07:14:34;;;;;;;64.50;37.17;;;;;;;16.42;45.12;103072.53;5006381;28;20052;-56
2022/03/24 07:16:59;;;;;;;65.63;36.83;;;;;;;16.41;45.62;103073.38;5023774;28;20076;-52
2022/03/24 07:19:25;;;;;;;71.50;38.47;;;;;;;16.61;44.96;103075.69;5009742;28;20873;-56
2022/03/24 07:21:51;;;;;;;63.05;35.75;;;;;;;16.97;44.51;103074.75;5014429;28;20124;-53
2022/03/24 07:24:17;;;;;;;63.20;37.67;;;;;;;17.13;43.97;103076.88;5018393;28;20049;-50
2022/03/24 07:26:43;;;;;;;62.20;35.85;;;;;;;17.83;42.23;103070.38;5007369;28;20706;-53
2022/03/24 07:29:10;;;;;;;66.00;36.60;;;;;;;17.86;42.60;103067.81;5017674;28;20121;-54
2022/03/24 07:31:37;;;;;;;65.15;36.95;;;;;;;17.95;42.76;103074.97;5016098;28;20399;-53
2022/03/24 07:34:03;;;;;;;65.63;35.92;;;;;;;18.09;41.50;103077.00;5017880;28;20132;-50
2022/03/24 07:36:29;;;;;;;68.15;36.45;;;;;;;18.24;40.79;103073.72;5009641;28;20717;-53
2022/03/24 07:38:57;;;;;;;63.05;36.33;;;;;;;18.38;40.73;103076.59;5016012;28;20048;-54
2022/03/24 07:41:23;;;;;;;59.33;36.65;;;;;;;18.50;40.40;103079.44;5011034;28;20129;-53
2022/03/24 07:43:49;;;;;;;59.63;35.70;;;;;;;17.97;41.92;103084.72;5016638;28;20120;-52
2022/03/24 07:46:15;;;;;;;64.50;35.97;;;;;;;18.07;42.25;103089.28;5016581;28;20047;-51
2022/03/24 07:48:43;;;;;;;65.45;38.08;;;;;;;17.69;43.16;103085.94;5009040;28;20284;-51
2022/03/24 07:51:08;;;;;;;64.43;36.90;;;;;;;16.92;44.61;103095.72;5008198;28;20106;-53
2022/03/24 07:53:43;;;;;;;65.93;37.58;;;;;;;16.13;46.39;103103.41;5007730;28;20049;-53
2022/03/24 07:56:08;;;;;;;68.60;38.45;;;;;;;15.71;48.29;103103.16;5004532;28;20585;-53
2022/03/24 07:58:34;;;;;;;70.45;38.15;;;;;;;15.87;47.90;103114.97;5007760;28;20097;-53
2022/03/24 08:00:59;;;;;;;70.35;38.53;;;;;;;15.63;48.34;103102.94;5011835;28;20335;-53
2022/03/24 08:03:25;;;;;;;65.05;36.55;;;;;;;15.83;47.77;103108.75;5014476;28;20098;-53
2022/03/24 08:05:51;;;;;;;68.75;37.85;;;;;;;15.86;47.99;103107.94;5023441;28;20098;-55
2022/03/24 08:08:17;;;;;;;71.57;38.00;;;;;;;16.05;47.31;103115.47;5007793;28;20487;-53
2022/03/24 08:10:47;;;;;;;74.55;37.85;;;;;;;16.19;47.51;103116.72;5007960;28;20683;-52
2022/03/24 08:13:15;;;;;;;67.65;35.67;;;;;;;16.23;46.10;103115.94;5014447;28;20393;-52
2022/03/24 08:15:41;;;;;;;66.13;37.10;;;;;;;16.39;46.25;103109.34;5020337;28;20117;-51
2022/03/24 08:18:11;;;;;;;67.63;37.42;;;;;;;16.26;46.40;103118.66;5034226;28;20051;-54
2022/03/24 08:20:37;;;;;;;67.05;36.75;;;;;;;16.58;46.02;103112.47;5008817;28;20571;-54
2022/03/24 08:23:04;;;;;;;66.18;35.97;;;;;;;16.64;44.99;103114.38;5019531;28;20096;-53
2022/03/24 08:25:30;;;;;;;69.22;35.35;;;;;;;16.75;44.28;103117.28;5015158;28;20044;-54
2022/03/24 08:27:56;;;;;;;70.13;36.28;;;;;;;16.90;43.31;103114.97;5036907;28;20056;-50
2022/03/24 08:30:24;;;;;;;72.88;36.08;;;;;;;17.00;44.20;103114.34;5019912;28;20466;-51
2022/03/24 08:32:50;;;;;;;63.33;34.55;;;;;;;17.13;42.75;103115.50;5015527;28;20118;-51
2022/03/24 08:35:15;;;;;;;62.20;34.70;;;;;;;16.93;42.62;103118.59;5026303;28;20302;-53
2022/03/24 08:37:40;;;;;;;61.75;33.55;;;;;;;16.99;40.92;103121.38;5017612;28;20044;-49
2022/03/24 08:40:07;;;;;;;62.03;31.98;;;;;;;17.28;40.74;103119.34;5019468;28;20044;-52
2022/03/24 08:42:36;;;;;;;57.90;33.03;;;;;;;17.45;39.84;103117.06;5008030;28;20052;-52
2022/03/24 08:45:01;;;;;;;59.00;32.80;;;;;;;17.71;39.44;103118.53;5010483;28;20087;-54
2022/03/24 08:47:26;;;;;;;54.78;33.03;;;;;;;17.79;39.19;103116.03;5026030;28;20064;-53
2022/03/24 08:49:52;;;;;;;58.67;32.28;;;;;;;17.96;38.46;103122.53;5019188;28;20068;-52
2022/03/24 08:52:17;;;;;;;51.28;29.83;;;;;;;18.16;37.20;103130.81;5016365;28;20163;-52
2022/03/24 08:54:43;;;;;;;50.85;27.98;;;;;;;18.21;33.89;103124.75;5012616;28;20379;-53
2022/03/24 08:57:09;;;;;;;53.78;29.45;;;;;;;18.16;34.02;103123.78;5005007;28;20394;-54
2022/03/24 08:59:35;;;;;;;44.30;26.73;;;;;;;18.41;34.81;103127.75;5021783;28;21343;-54
2022/03/24 09:02:00;;;;;;;49.60;25.50;;;;;;;18.26;32.27;103132.75;5021096;28;20541;-54
2022/03/24 09:04:26;;;;;;;39.22;23.27;;;;;;;18.56;31.19;103122.72;5019237;28;20044;-49
2022/03/24 09:06:53;;;;;;;41.80;24.35;;;;;;;18.54;30.56;103132.34;5016469;28;20780;-53
2022/03/24 09:09:22;;;;;;;38.72;23.17;;;;;;;18.04;29.80;103135.88;5026189;28;20434;-50
2022/03/24 09:11:50;;;;;;;46.17;25.73;;;;;;;18.43;30.98;103130.38;5006521;28;20406;-52
2022/03/24 09:14:16;;;;;;;45.00;25.75;;;;;;;18.53;30.84;103130.59;5021118;28;20051;-50
2022/03/24 09:16:42;;;;;;;42.70;25.42;;;;;;;18.75;31.61;103131.84;5009765;28;21074;-55
2022/03/24 09:19:07;;;;;;;39.65;23.13;;;;;;;18.89;29.74;103134.69;5017425;28;20648;-53
2022/03/24 09:21:32;;;;;;;46.13;23.27;;;;;;;18.82;29.17;103130.19;5013394;28;20237;-51
2022/03/24 09:23:58;;;;;;;46.42;23.33;;;;;;;18.99;29.83;103128.66;5026246;28;20036;-52
2022/03/24 09:26:24;;;;;;;44.15;24.52;;;;;;;19.08;30.34;103134.09;5020026;28;20060;-52
2022/03/24 09:28:52;;;;;;;42.47;22.75;;;;;;;19.21;30.27;103146.59;5012351;28;20165;-54
2022/03/24 09:31:20;;;;;;;37.83;20.00;;;;;;;19.13;26.51;103134.16;5011609;28;20049;-52
2022/03/24 09:33:46;;;;;;;39.13;20.10;;;;;;;18.37;25.63;103135.56;5019052;28;20156;-52
2022/03/24 09:36:12;;;;;;;39.10;19.33;;;;;;;18.66;25.36;103134.34;5025642;28;20053;-51
2022/03/24 09:38:38;;;;;;;33.78;18.88;;;;;;;18.93;25.43;103131.22;5014372;28;20439;-52
2022/03/24 09:41:05;;;;;;;45.92;20.23;;;;;;;19.03;25.72;103131.38;5021687;28;20539;-50
2022/03/24 09:43:34;;;;;;;37.75;20.25;;;;;;;19.13;26.03;103132.41;5017587;28;20040;-51
2022/03/24 09:46:00;;;;;;;37.22;19.92;;;;;;;19.23;26.53;103141.34;5016315;28;20064;-52
2022/03/24 09:48:26;;;;;;;35.08;20.35;;;;;;;19.33;26.70;103135.31;5020511;28;20045;-53
2022/03/24 09:50:52;;;;;;;36.75;20.20;;;;;;;18.97;26.68;103130.38;5012863;28;20098;-52
2022/03/24 09:53:18;;;;;;;37.75;20.95;;;;;;;18.91;27.99;103128.53;5013146;28;20048;-53
2022/03/24 09:55:45;;;;;;;39.58;21.38;;;;;;;19.07;28.48;103129.69;5023535;28;20435;-54
2022/03/24 09:58:11;;;;;;;37.58;22.38;;;;;;;18.84;27.94;103131.09;5018418;28;20459;-52
2022/03/24 10:00:36;;;;;;;40.83;22.40;;;;;;;19.00;28.70;103128.69;5005370;28;20052;-53
2022/03/24 10:03:09;;;;;;;40.53;22.00;;;;;;;19.02;28.06;103129.63;5031238;28;20047;-52
2022/03/24 10:05:34;;;;;;;37.42;22.05;;;;;;;18.95;27.17;103124.22;5014469;28;20488;-53
2022/03/24 10:08:05;;;;;;;42.25;21.33;;;;;;;19.24;26.97;103130.78;5018516;28;20033;-50
2022/03/24 10:10:42;;;;;;;37.35;21.52;;;;;;;19.13;25.75;103131.50;5013072;28;20091;-51
2022/03/24 10:13:07;;;;;;;36.20;21.02;;;;;;;19.43;26.00;103126.63;5023353;28;20077;-51
2022/03/24 10:15:37;;;;;;;40.00;21.02;;;;;;;19.74;26.07;103127.91;5018992;28;20143;-53
2022/03/24 10:18:02;;;;;;;35.60;19.55;;;;;;;19.55;23.60;103126.81;5015668;28;20073;-53
2022/03/24 10:20:31;;;;;;;37.15;20.42;;;;;;;19.71;25.13;103131.41;5009560;28;20087;-52
2022/03/24 10:23:00;;;;;;;37.92;20.52;;;;;;;19.59;23.58;103127.72;5011829;28;20045;-51
2022/03/24 10:25:33;;;;;;;34.63;21.42;;;;;;;19.60;25.14;103133.03;5019575;28;20041;-52
2022/03/24 10:28:07;;;;;;;38.33;21.80;;;;;;;19.71;25.39;103127.88;5011663;28;20036;-53
2022/03/24 10:30:53;;;;;;;40.55;20.63;;;;;;;19.44;25.30;103131.06;5016232;28;20414;-53
2022/03/24 10:33:38;;;;;;;37.45;21.15;;;;;;;19.77;25.47;103127.94;5003178;28;20072;-52
2022/03/24 10:36:23;;;;;;;43.10;21.70;;;;;;;19.67;26.15;103128.72;5015719;28;20083;-50
2022/03/24 10:38:52;;;;;;;37.20;20.83;;;;;;;19.90;24.93;103135.13;5005550;28;20091;-53
2022/03/24 10:41:20;;;;;;;40.70;20.13;;;;;;;19.75;23.83;103133.22;5018975;28;20756;-51
2022/03/24 10:43:49;;;;;;;37.28;20.70;;;;;;;19.69;24.49;103133.16;5009276;28;20048;-54
2022/03/24 10:46:14;;;;;;;35.55;20.65;;;;;;;19.37;24.34;103127.44;5020625;28;20067;-53
2022/03/24 10:48:40;;;;;;;34.50;19.40;;;;;;;19.49;23.99;103129.38;5004810;28;20350;-52
2022/03/24 10:51:06;;;;;;;36.20;19.90;;;;;;;19.67;25.00;103132.25;5021958;28;20040;-55
2022/03/24 10:53:43;;;;;;;40.10;22.02;;;;;;;19.52;25.40;103128.53;5018235;28;20588;-51
2022/03/24 10:56:36;;;;;;;39.28;22.85;;;;;;;19.60;26.91;103132.16;5019602;28;20064;-54
2022/03/24 10:59:05;;;;;;;39.05;22.27;;;;;;;19.78;28.02;103127.06;5014651;28;20471;-54
2022/03/24 11:01:32;;;;;;;38.25;22.25;;;;;;;19.77;25.57;103127.94;5018128;28;20051;-51
2022/03/24 11:03:58;;;;;;;35.28;21.15;;;;;;;19.61;25.07;103121.59;5020202;28;20044;-54
2022/03/24 11:06:23;;;;;;;38.00;22.10;;;;;;;19.57;24.57;103117.16;5013362;28;20050;-52
2022/03/24 11:08:54;;;;;;;38.20;21.40;;;;;;;19.65;24.21;103122.50;5007855;28;20619;-53
2022/03/24 11:11:20;;;;;;;37.13;21.98;;;;;;;19.70;25.15;103126.13;5015546;28;20749;-50
2022/03/24 11:13:51;;;;;;;40.83;21.60;;;;;;;19.64;24.79;103118.09;5014672;28;20047;-55
2022/03/24 11:16:19;;;;;;;36.40;21.17;;;;;;;19.89;24.75;103122.78;5011261;28;20057;-50